Airfield :
LOGIN :

Register | Disclaimer

   EN    FR    IT 

 










Legend :    VFR   Marginal VFR   IFR   Intensive IFR   Very Intensive IFR
Visi :
Ceiling :
>= 8 km
>= 3000ft
5 to 8 km
1000 to 3000 ft
1500m to 5 km
500 to 1000 ft
800 to 1500m
200 to 500 ft
< 800m
< 200 ft
Symbols :   Thunderstorms  Fog  Heavy snow  Heavy precipitations  Wind > 20 kt
SIGMETs :     Misc.  Thunderstorms  Icing  Turbulence  Mountain Waves  Volcanic Ashes






- Airport Elevation : 392 ft
- IATA code : CDG


LFPG - Paris-Aeroport Charles De Gaulle

CURRENT METAR :
  • 251000Z 17008KT 9999 SCT032 BKN260 09/05 Q1017 NOSIG

EXPIRED METARs :
  • 250930Z 16006KT 9999 FEW012 BKN032 BKN260 08/05 Q1017 NOSIG
  • 250900Z 17008KT 9999 SCT011 BKN015 BKN260 07/04 Q1016 NOSIG
  • 250830Z 19007KT 9999 FEW015 BKN260 07/04 Q1016 NOSIG
  • 250800Z 17008KT 9999 FEW031 BKN260 07/04 Q1016 NOSIG
  • 250730Z 18009KT 9999 BKN031 BKN260 07/04 Q1016 NOSIG

TAF AMD TAF LFPG
Valid from the 25 at 07:00 until the 26 at 12:00 UTC


250728Z 2507/2612 17008KT 9999 BKN030 TX12/2515Z TN03/2605Z
BECMG 2601/2603 4000 BR
PROB30 2603/2604 0600 BCFG SCT001
TEMPO 2605/2610 0400 FG VV///
BECMG 2610/2612 6000 NSW BKN008
ATIS : +33 1 48 62 10 92



MET'MAP, your aeronautical weather chart ! - Copyright ORBIFLY December 2007 - Disclaimer

ORBIFLY MET'MAP TEAM :

Programming & Development : Alexandra Zaïnal
Concept & original design : Baudouin d'Aumeries
Assistance for programming : Marc-Olivier Méhu
Technical & hardware support : Manuel Goepfert

Contact : metmap@orbifly.com




SOURCES & CREDITS :

   NOAA